CCA351 ZGSZ-RKSI
Flight info
| Callsign | CCA351 |
|---|---|
| Flight time | N/A |
| Altitude | FL391 |
| Route | IDUMA1 IDUMA W41 ISLOM G471 PLT A599 TUPGA W135 ADBAS V77 LURMA A599 PUD W11 PINOT W115 MATNU G455 SURAK A326 OMLIB W209 AGAVO Y644 REBIT REBI1Y |
| Aircraft | B744/H-CGHLRTWZ/B1D1 |
Departure
| Time | 2026-04-14 10:55 |
|---|---|
| Airport | Shenzhen Bao'an International Airport (ZGSZ) |
Arrival
| Time | N/A |
|---|---|
| Airport | Incheon International Airport (RKSI) |
| Time | Latitude | Longitude | Altitude | Speed | Heading |
|---|---|---|---|---|---|
| 2026-04-14 10:55 | 22.59817 | 113.83324 | 2517 ft | 178 kts | 157° |
| 2026-04-14 10:55 | 22.58722 | 113.83924 | 2887 ft | 180 kts | 158° |
| 2026-04-14 10:55 | 22.57577 | 113.84551 | 3268 ft | 188 kts | 158° |
| 2026-04-14 10:55 | 22.56346 | 113.85223 | 3635 ft | 209 kts | 158° |
| 2026-04-14 10:56 | 22.55007 | 113.85953 | 3986 ft | 223 kts | 158° |
| 2026-04-14 10:56 | 22.53567 | 113.86739 | 4270 ft | 241 kts | 158° |
| 2026-04-14 10:56 | 22.52041 | 113.87582 | 4690 ft | 255 kts | 155° |
| 2026-04-14 10:56 | 22.50645 | 113.88864 | 5110 ft | 275 kts | 129° |
| 2026-04-14 10:57 | 22.49919 | 113.90756 | 6010 ft | 274 kts | 101° |
| 2026-04-14 10:57 | 22.50034 | 113.92767 | 6953 ft | 270 kts | 74° |
| 2026-04-14 10:57 | 22.50935 | 113.94539 | 7668 ft | 272 kts | 47° |
| 2026-04-14 10:57 | 22.52311 | 113.95970 | 8272 ft | 281 kts | 42° |
| 2026-04-14 10:58 | 22.53532 | 113.97645 | 8915 ft | 290 kts | 56° |
| 2026-04-14 10:58 | 22.54577 | 113.99540 | 9626 ft | 295 kts | 55° |
| 2026-04-14 10:58 | 22.56036 | 114.01084 | 10275 ft | 296 kts | 30° |
| 2026-04-14 10:58 | 22.57940 | 114.01968 | 10813 ft | 305 kts | 13° |
| 2026-04-14 10:59 | 22.60086 | 114.02451 | 11033 ft | 328 kts | 4° |
| 2026-04-14 10:59 | 22.62442 | 114.02704 | 11257 ft | 354 kts | 0° |
| 2026-04-14 10:59 | 22.64996 | 114.02879 | 11446 ft | 383 kts | 0° |
| 2026-04-14 10:59 | 22.67713 | 114.03119 | 12066 ft | 398 kts | 1° |
| 2026-04-14 11:00 | 22.70475 | 114.03114 | 13008 ft | 397 kts | 349° |
| 2026-04-14 11:00 | 22.73151 | 114.02438 | 13998 ft | 397 kts | 340° |
| 2026-04-14 11:00 | 22.75772 | 114.01466 | 14944 ft | 400 kts | 335° |
| 2026-04-14 11:00 | 22.78346 | 114.00310 | 15856 ft | 404 kts | 333° |
| 2026-04-14 11:01 | 22.80925 | 113.99085 | 16721 ft | 409 kts | 333° |
| 2026-04-14 11:01 | 22.83571 | 113.97879 | 17586 ft | 414 kts | 333° |
| 2026-04-14 11:01 | 22.86001 | 113.96795 | 18359 ft | 419 kts | 334° |
| 2026-04-14 11:01 | 22.88819 | 113.95866 | 19082 ft | 432 kts | 346° |
| 2026-04-14 11:02 | 22.91848 | 113.95724 | 19897 ft | 442 kts | 357° |
| 2026-04-14 11:02 | 22.94948 | 113.95985 | 20642 ft | 451 kts | 2° |
| 2026-04-14 11:02 | 22.98075 | 113.96477 | 21315 ft | 460 kts | 5° |
| 2026-04-14 11:02 | 23.01244 | 113.97091 | 21990 ft | 466 kts | 6° |
| 2026-04-14 11:03 | 23.04447 | 113.97706 | 22654 ft | 471 kts | 5° |
| 2026-04-14 11:03 | 23.07690 | 113.98294 | 23274 ft | 477 kts | 5° |
| 2026-04-14 11:03 | 23.10979 | 113.98876 | 23888 ft | 482 kts | 5° |
| 2026-04-14 11:03 | 23.14304 | 113.99460 | 24520 ft | 487 kts | 5° |
| 2026-04-14 11:04 | 23.17658 | 114.00047 | 25106 ft | 492 kts | 5° |
| 2026-04-14 11:04 | 23.21050 | 114.00640 | 25688 ft | 497 kts | 5° |
| 2026-04-14 11:04 | 23.24471 | 114.01239 | 26242 ft | 502 kts | 5° |
| 2026-04-14 11:04 | 23.27868 | 114.02252 | 26693 ft | 515 kts | 19° |
| 2026-04-14 11:05 | 23.31057 | 114.04080 | 27269 ft | 522 kts | 28° |
| 2026-04-14 11:05 | 23.34097 | 114.06265 | 27787 ft | 528 kts | 33° |
| 2026-04-14 11:05 | 23.37040 | 114.08690 | 28248 ft | 534 kts | 36° |
| 2026-04-14 11:05 | 23.39937 | 114.11244 | 28702 ft | 539 kts | 37° |
| 2026-04-14 11:06 | 23.42865 | 114.13803 | 29146 ft | 542 kts | 36° |
| 2026-04-14 11:06 | 23.45818 | 114.16351 | 29556 ft | 546 kts | 36° |
| 2026-04-14 11:06 | 23.48808 | 114.18920 | 29950 ft | 549 kts | 36° |
| 2026-04-14 11:06 | 23.51814 | 114.21498 | 30325 ft | 553 kts | 36° |
| 2026-04-14 11:07 | 23.54834 | 114.24089 | 30681 ft | 556 kts | 36° |
| 2026-04-14 11:07 | 23.57879 | 114.26702 | 31017 ft | 559 kts | 36° |
| 2026-04-14 11:07 | 23.60933 | 114.29323 | 31347 ft | 562 kts | 36° |
| 2026-04-14 11:07 | 23.63997 | 114.31952 | 31809 ft | 561 kts | 36° |
| 2026-04-14 11:08 | 23.67052 | 114.34551 | 32377 ft | 557 kts | 36° |
| 2026-04-14 11:08 | 23.70153 | 114.37081 | 32881 ft | 555 kts | 35° |
| 2026-04-14 11:08 | 23.73240 | 114.39590 | 33323 ft | 554 kts | 35° |
| 2026-04-14 11:08 | 23.76313 | 114.42102 | 33796 ft | 552 kts | 35° |
| 2026-04-14 11:09 | 23.79373 | 114.44611 | 34242 ft | 550 kts | 35° |
| 2026-04-14 11:09 | 23.82418 | 114.47113 | 34678 ft | 548 kts | 36° |
| 2026-04-14 11:09 | 23.85452 | 114.49610 | 35105 ft | 547 kts | 36° |
| 2026-04-14 11:10 | 23.91495 | 114.54587 | 35898 ft | 543 kts | 36° |
| 2026-04-14 11:10 | 23.94509 | 114.57059 | 36255 ft | 542 kts | 35° |
| 2026-04-14 11:10 | 23.97520 | 114.59530 | 36606 ft | 541 kts | 36° |
| 2026-04-14 11:10 | 24.00514 | 114.61995 | 36977 ft | 539 kts | 36° |
| 2026-04-14 11:11 | 24.03497 | 114.64450 | 37362 ft | 537 kts | 36° |
| 2026-04-14 11:11 | 24.06470 | 114.66892 | 37656 ft | 536 kts | 36° |
| 2026-04-14 11:11 | 24.09443 | 114.69346 | 37935 ft | 536 kts | 36° |
| 2026-04-14 11:11 | 24.12413 | 114.71802 | 38119 ft | 537 kts | 36° |
| 2026-04-14 11:12 | 24.15381 | 114.74261 | 38285 ft | 538 kts | 36° |
| 2026-04-14 11:12 | 24.18362 | 114.76731 | 38508 ft | 538 kts | 36° |
| 2026-04-14 11:12 | 24.21333 | 114.79195 | 38762 ft | 536 kts | 36° |
| 2026-04-14 11:12 | 24.24298 | 114.81653 | 38953 ft | 536 kts | 36° |
| 2026-04-14 11:13 | 24.27405 | 114.83869 | 38981 ft | 532 kts | 24° |
| 2026-04-14 11:13 | 24.30824 | 114.85387 | 38981 ft | 532 kts | 16° |
| 2026-04-14 11:13 | 24.37926 | 114.87511 | 39004 ft | 529 kts | 9° |
| 2026-04-14 11:14 | 24.45101 | 114.89158 | 39007 ft | 527 kts | 9° |
| 2026-04-14 11:14 | 24.52259 | 114.90921 | 39014 ft | 529 kts | 9° |
| 2026-04-14 11:15 | 24.59438 | 114.92703 | 39015 ft | 529 kts | 9° |
| 2026-04-14 11:15 | 24.66613 | 114.94478 | 39023 ft | 530 kts | 9° |
| 2026-04-14 11:16 | 24.73798 | 114.96256 | 39024 ft | 531 kts | 9° |
| 2026-04-14 11:16 | 24.81001 | 114.98022 | 39035 ft | 532 kts | 9° |
| 2026-04-14 11:17 | 24.88234 | 114.99781 | 39037 ft | 533 kts | 9° |
| 2026-04-14 11:17 | 24.95463 | 115.01543 | 39039 ft | 533 kts | 9° |
| 2026-04-14 11:18 | 25.02701 | 115.03311 | 39046 ft | 535 kts | 9° |
| 2026-04-14 11:18 | 25.09957 | 115.05073 | 39047 ft | 535 kts | 9° |
| 2026-04-14 11:19 | 25.17220 | 115.06849 | 39053 ft | 536 kts | 9° |
| 2026-04-14 11:19 | 25.24485 | 115.08631 | 39051 ft | 536 kts | 9° |
| 2026-04-14 11:20 | 25.31758 | 115.10150 | 39042 ft | 528 kts | 358° |
| 2026-04-14 11:20 | 25.35380 | 115.09827 | 39055 ft | 520 kts | 343° |
| 2026-04-14 11:20 | 25.38842 | 115.08759 | 39064 ft | 517 kts | 337° |
| 2026-04-14 11:21 | 25.45474 | 115.05872 | 39058 ft | 510 kts | 330° |
| 2026-04-14 11:21 | 25.51835 | 115.02489 | 39061 ft | 507 kts | 329° |
| 2026-04-14 11:22 | 25.58218 | 114.99180 | 39063 ft | 508 kts | 329° |
| 2026-04-14 11:22 | 25.64606 | 114.95883 | 39062 ft | 507 kts | 329° |
| 2026-04-14 11:23 | 25.70471 | 114.92854 | 39063 ft | 508 kts | 329° |
| 2026-04-14 11:23 | 25.76878 | 114.90841 | 39057 ft | 520 kts | 353° |
| 2026-04-14 11:24 | 25.80497 | 114.91156 | 39064 ft | 529 kts | 8° |
| 2026-04-14 11:24 | 25.84006 | 114.92467 | 39064 ft | 538 kts | 23° |
| 2026-04-14 11:24 | 25.87189 | 114.94689 | 39068 ft | 546 kts | 37° |
| 2026-04-14 11:24 | 25.89996 | 114.97528 | 39067 ft | 550 kts | 45° |
| 2026-04-14 11:25 | 25.95046 | 115.03906 | 39064 ft | 551 kts | 49° |
| 2026-04-14 11:25 | 26.00099 | 115.10284 | 39062 ft | 550 kts | 47° |
| 2026-04-14 11:26 | 26.05268 | 115.16520 | 39063 ft | 549 kts | 46° |
| 2026-04-14 11:26 | 26.10481 | 115.22714 | 39062 ft | 550 kts | 46° |
| 2026-04-14 11:27 | 26.15685 | 115.28917 | 39060 ft | 549 kts | 46° |
| 2026-04-14 11:27 | 26.20885 | 115.35129 | 39059 ft | 549 kts | 46° |
| 2026-04-14 11:28 | 26.26077 | 115.41340 | 39059 ft | 549 kts | 46° |
| 2026-04-14 11:28 | 26.31267 | 115.47558 | 39056 ft | 549 kts | 46° |
| 2026-04-14 11:29 | 26.36450 | 115.53777 | 39056 ft | 549 kts | 46° |
| 2026-04-14 11:29 | 26.41630 | 115.60000 | 39053 ft | 548 kts | 46° |
| 2026-04-14 11:30 | 26.46806 | 115.66229 | 39052 ft | 548 kts | 46° |
| 2026-04-14 11:30 | 26.51968 | 115.72449 | 39050 ft | 547 kts | 46° |
| 2026-04-14 11:31 | 26.57132 | 115.78681 | 39049 ft | 547 kts | 46° |
| 2026-04-14 11:31 | 26.62153 | 115.84747 | 39046 ft | 547 kts | 46° |
| 2026-04-14 11:32 | 26.67302 | 115.90979 | 39044 ft | 546 kts | 46° |
| 2026-04-14 11:32 | 26.72454 | 115.97200 | 39042 ft | 546 kts | 46° |
| 2026-04-14 11:33 | 26.77592 | 116.03431 | 39040 ft | 546 kts | 46° |
| 2026-04-14 11:34 | 26.85282 | 116.12798 | 39036 ft | 545 kts | 46° |
| 2026-04-14 11:34 | 26.90400 | 116.19038 | 39035 ft | 545 kts | 46° |
| 2026-04-14 11:35 | 26.95532 | 116.25258 | 39035 ft | 545 kts | 46° |
| 2026-04-14 11:35 | 27.00696 | 116.31457 | 39031 ft | 545 kts | 46° |
| 2026-04-14 11:36 | 27.05852 | 116.37666 | 39032 ft | 545 kts | 46° |
| 2026-04-14 11:36 | 27.11002 | 116.43904 | 39044 ft | 547 kts | 46° |
| 2026-04-14 11:37 | 27.16153 | 116.50152 | 39021 ft | 546 kts | 46° |
| 2026-04-14 11:37 | 27.21299 | 116.56398 | 39015 ft | 545 kts | 45° |
| 2026-04-14 11:38 | 27.26543 | 116.62507 | 39016 ft | 545 kts | 44° |
| 2026-04-14 11:38 | 27.31812 | 116.68595 | 39015 ft | 545 kts | 44° |
| 2026-04-14 11:39 | 27.37076 | 116.74720 | 39004 ft | 545 kts | 44° |
| 2026-04-14 11:39 | 27.42323 | 116.80859 | 39001 ft | 546 kts | 44° |
| 2026-04-14 11:40 | 27.47577 | 116.87016 | 39002 ft | 546 kts | 44° |
| 2026-04-14 11:40 | 27.52829 | 116.93176 | 38998 ft | 546 kts | 44° |
| 2026-04-14 11:41 | 27.58121 | 116.99286 | 38992 ft | 546 kts | 44° |
| 2026-04-14 11:41 | 27.63402 | 117.05400 | 38993 ft | 545 kts | 44° |
| 2026-04-14 11:42 | 27.68680 | 117.11527 | 38992 ft | 546 kts | 44° |
| 2026-04-14 11:42 | 27.73954 | 117.17661 | 38989 ft | 545 kts | 44° |
| 2026-04-14 11:43 | 27.79241 | 117.23781 | 38985 ft | 545 kts | 44° |
| 2026-04-14 11:43 | 27.84520 | 117.29903 | 38986 ft | 545 kts | 44° |
| 2026-04-14 11:44 | 27.89791 | 117.36041 | 38974 ft | 546 kts | 44° |
| 2026-04-14 11:44 | 27.95061 | 117.42190 | 38967 ft | 545 kts | 44° |
| 2026-04-14 11:45 | 28.00329 | 117.48348 | 38957 ft | 545 kts | 44° |
| 2026-04-14 11:45 | 28.05590 | 117.54508 | 38956 ft | 545 kts | 44° |
| 2026-04-14 11:46 | 28.10854 | 117.60679 | 38976 ft | 546 kts | 44° |
| 2026-04-14 11:46 | 28.16121 | 117.66863 | 39015 ft | 548 kts | 44° |
| 2026-04-14 11:47 | 28.21406 | 117.73058 | 39005 ft | 548 kts | 44° |
| 2026-04-14 11:47 | 28.26681 | 117.79263 | 39012 ft | 547 kts | 44° |
| 2026-04-14 11:48 | 28.31941 | 117.85480 | 39020 ft | 548 kts | 44° |
| 2026-04-14 11:48 | 28.37205 | 117.91711 | 39014 ft | 548 kts | 44° |
| 2026-04-14 11:49 | 28.42462 | 117.97944 | 39008 ft | 547 kts | 45° |
| 2026-04-14 11:49 | 28.47620 | 118.04289 | 39010 ft | 547 kts | 45° |
| 2026-04-14 11:50 | 28.52768 | 118.10654 | 39023 ft | 549 kts | 45° |
| 2026-04-14 11:50 | 28.57928 | 118.17035 | 39006 ft | 549 kts | 45° |
| 2026-04-14 11:51 | 28.65650 | 118.26591 | 39012 ft | 548 kts | 45° |
| 2026-04-14 11:51 | 28.70851 | 118.32983 | 39045 ft | 555 kts | 45° |
| 2026-04-14 11:52 | 28.76064 | 118.39430 | 39014 ft | 551 kts | 45° |
| 2026-04-14 11:52 | 28.81223 | 118.45830 | 38999 ft | 547 kts | 45° |
| 2026-04-14 11:53 | 28.86373 | 118.52231 | 39045 ft | 552 kts | 45° |
| 2026-04-14 11:53 | 28.91593 | 118.58730 | 39065 ft | 559 kts | 45° |
| 2026-04-14 11:54 | 28.96826 | 118.65256 | 39024 ft | 556 kts | 45° |
| 2026-04-14 11:54 | 29.02022 | 118.71746 | 39039 ft | 555 kts | 45° |
| 2026-04-14 11:55 | 29.07256 | 118.78294 | 39065 ft | 563 kts | 45° |
| 2026-04-14 11:55 | 29.12533 | 118.84907 | 39057 ft | 564 kts | 45° |
| 2026-04-14 11:56 | 29.17808 | 118.91497 | 39052 ft | 561 kts | 45° |
| 2026-04-14 11:56 | 29.23064 | 118.98109 | 39065 ft | 564 kts | 45° |